Time;durP1;ratioP1;P1;durP2;ratioP2;P2;SDS_P1;SDS_P2;PMS_P1;PMS_P2;Temp;Humidity;BMP_temperature;BMP_pressure;BME280_temperature;BME280_humidity;BME280_pressure;Samples;Min_cycle;Max_cycle;Signal;HPM_P1;HPM_P2
2022/03/23 00:01:44;;;;;;;47.40;35.95;;;28.30;99.90;;;;;;5067541;28;20021;-63
2022/03/23 00:04:11;;;;;;;59.60;35.05;;;28.30;99.90;;;;;;5073426;28;20028;-62
2022/03/23 00:06:38;;;;;;;48.67;34.70;;;28.40;99.90;;;;;;5073715;28;20353;-63
2022/03/23 00:09:05;;;;;;;156.65;112.40;;;28.40;99.90;;;;;;5073119;28;20389;-62
2022/03/23 00:11:32;;;;;;;59.63;46.15;;;28.40;99.90;;;;;;5073256;28;20382;-63
2022/03/23 00:13:59;;;;;;;64.85;49.83;;;28.40;99.90;;;;;;5064278;28;20101;-62
2022/03/23 00:16:26;;;;;;;267.50;180.90;;;28.40;99.90;;;;;;5047295;28;20033;-62
2022/03/23 00:18:53;;;;;;;62.22;45.22;;;28.40;99.90;;;;;;5053163;28;20091;-61
2022/03/23 00:21:22;;;;;;;106.97;68.13;;;28.50;99.90;;;;;;5044919;28;20099;-61
2022/03/23 00:23:50;;;;;;;890.33;599.95;;;28.60;99.90;;;;;;5053165;28;20037;-62
2022/03/23 00:26:16;;;;;;;578.90;419.42;;;28.70;99.90;;;;;;5052635;28;20423;-62
2022/03/23 00:28:43;;;;;;;135.45;97.95;;;28.80;99.90;;;;;;5053068;28;20037;-63
2022/03/23 00:31:10;;;;;;;58.78;41.63;;;28.90;99.90;;;;;;5052841;28;20037;-62
2022/03/23 00:33:37;;;;;;;780.50;685.05;;;29.00;99.90;;;;;;5052837;28;20032;-63
2022/03/23 00:36:06;;;;;;;207.73;169.52;;;29.00;99.90;;;;;;5052320;28;20040;-63
2022/03/23 00:38:34;;;;;;;336.10;249.98;;;29.10;99.90;;;;;;5053084;28;20044;-63
2022/03/23 00:41:03;;;;;;;105.28;83.07;;;29.10;99.90;;;;;;5052901;28;20028;-63
2022/03/23 00:43:30;;;;;;;43.85;29.85;;;29.10;99.90;;;;;;5052868;28;20078;-62
2022/03/23 00:45:57;;;;;;;524.03;421.50;;;29.10;99.90;;;;;;5052797;28;20028;-62
2022/03/23 00:48:23;;;;;;;752.92;585.90;;;29.10;99.90;;;;;;5052850;28;20393;-61
2022/03/23 00:50:50;;;;;;;1165.47;765.97;;;29.20;99.90;;;;;;5051354;28;20036;-62
2022/03/23 00:53:18;;;;;;;195.63;129.40;;;29.20;99.90;;;;;;5048854;28;20025;-61
2022/03/23 00:55:45;;;;;;;769.95;584.42;;;29.20;99.90;;;;;;5052374;28;20033;-61
2022/03/23 00:58:11;;;;;;;640.92;460.83;;;29.20;99.90;;;;;;5052428;28;20036;-61
2022/03/23 01:00:41;;;;;;;1517.78;927.20;;;29.30;99.90;;;;;;5052283;28;20423;-62
2022/03/23 01:03:09;;;;;;;785.83;625.03;;;29.30;99.90;;;;;;5048171;28;20098;-60
2022/03/23 01:05:37;;;;;;;768.58;537.00;;;29.40;99.90;;;;;;5053008;28;20033;-61
2022/03/23 01:08:04;;;;;;;857.17;548.15;;;29.40;99.90;;;;;;5052774;28;20107;-61
2022/03/23 01:10:34;;;;;;;369.38;204.52;;;29.60;99.90;;;;;;5052336;28;20424;-61
2022/03/23 01:13:01;;;;;;;70.05;39.15;;;29.70;99.90;;;;;;5053148;28;20029;-61
2022/03/23 01:15:29;;;;;;;103.35;58.42;;;29.70;99.90;;;;;;5052922;28;20020;-62
2022/03/23 01:17:56;;;;;;;63.13;38.97;;;29.60;99.90;;;;;;5052221;28;20029;-63
2022/03/23 01:20:24;;;;;;;39.75;24.20;;;29.70;99.90;;;;;;5052813;28;20195;-62
2022/03/23 01:22:51;;;;;;;271.15;177.48;;;29.70;99.90;;;;;;5055612;28;20474;-62
2022/03/23 01:25:18;;;;;;;93.47;55.67;;;29.60;99.90;;;;;;5056503;28;20025;-61
2022/03/23 01:27:45;;;;;;;505.35;312.75;;;29.60;99.90;;;;;;5056006;28;20389;-62
2022/03/23 01:30:14;;;;;;;397.38;212.95;;;29.60;99.90;;;;;;5056219;28;20017;-61
2022/03/23 01:32:42;;;;;;;266.05;133.45;;;29.60;99.90;;;;;;5056105;28;20021;-61
2022/03/23 01:35:10;;;;;;;244.20;125.50;;;29.70;99.90;;;;;;5056194;28;20021;-62
2022/03/23 01:37:37;;;;;;;615.75;369.15;;;29.70;99.90;;;;;;5055497;28;20024;-62
2022/03/23 01:40:06;;;;;;;70.78;35.38;;;29.80;99.90;;;;;;5054899;28;20156;-62
2022/03/23 01:42:33;;;;;;;340.73;165.57;;;29.90;99.90;;;;;;5054080;28;20014;-62
2022/03/23 01:44:59;;;;;;;158.55;74.72;;;30.00;99.90;;;;;;5054602;28;20082;-62
2022/03/23 01:47:26;;;;;;;280.83;141.63;;;30.00;99.90;;;;;;5055302;28;20083;-62
2022/03/23 01:49:55;;;;;;;236.32;139.40;;;30.00;99.90;;;;;;5055485;28;20021;-65
2022/03/23 01:52:26;;;;;;;101.55;66.40;;;30.10;99.90;;;;;;5055681;28;20091;-64
2022/03/23 01:54:53;;;;;;;55.25;30.38;;;30.10;99.90;;;;;;5054284;28;20060;-66
2022/03/23 01:57:21;;;;;;;62.83;39.17;;;30.10;99.90;;;;;;5055766;28;20452;-65
2022/03/23 01:59:48;;;;;;;79.03;45.53;;;30.10;99.90;;;;;;5055781;28;20027;-65
2022/03/23 02:02:15;;;;;;;51.20;30.45;;;30.10;99.90;;;;;;5054254;28;20028;-66
2022/03/23 02:04:42;;;;;;;29.15;16.58;;;30.10;99.90;;;;;;5047788;28;20080;-66
2022/03/23 02:07:10;;;;;;;131.02;60.10;;;30.10;99.90;;;;;;5036014;28;20512;-67
2022/03/23 02:09:37;;;;;;;46.53;24.40;;;30.20;99.90;;;;;;5054339;28;20458;-64
2022/03/23 02:12:08;;;;;;;20.83;13.82;;;30.30;99.90;;;;;;5055361;28;20033;-65
2022/03/23 02:14:36;;;;;;;202.20;135.20;;;30.30;99.90;;;;;;5055703;28;20025;-64
2022/03/23 02:17:03;;;;;;;500.25;377.92;;;30.40;99.90;;;;;;5055723;28;20547;-66
2022/03/23 02:19:30;;;;;;;38.20;26.20;;;30.40;99.90;;;;;;5055613;28;20108;-66
2022/03/23 02:21:57;;;;;;;24.55;14.38;;;30.40;99.90;;;;;;5049304;28;20029;-66
2022/03/23 02:24:27;;;;;;;179.02;118.70;;;30.40;99.90;;;;;;5048903;28;20049;-65
2022/03/23 02:26:54;;;;;;;565.30;447.20;;;30.50;99.90;;;;;;5054940;28;20380;-67
2022/03/23 02:29:23;;;;;;;174.50;128.25;;;30.70;99.90;;;;;;5059222;28;20032;-65
2022/03/23 02:31:50;;;;;;;467.15;416.48;;;30.70;99.90;;;;;;5055281;28;20029;-66
2022/03/23 02:34:18;;;;;;;206.95;173.25;;;30.70;99.90;;;;;;5039483;28;20488;-66
2022/03/23 02:36:45;;;;;;;34.33;22.48;;;30.80;99.90;;;;;;5066219;28;20032;-66
2022/03/23 02:39:12;;;;;;;233.80;125.00;;;30.80;99.90;;;;;;5058366;28;20549;-65
2022/03/23 02:41:39;;;;;;;55.20;38.60;;;30.90;99.90;;;;;;5051411;28;20037;-66
2022/03/23 02:44:06;;;;;;;20.58;13.48;;;31.00;99.90;;;;;;5047696;28;20423;-66
2022/03/23 02:46:35;;;;;;;22.65;12.15;;;30.90;99.90;;;;;;5054950;28;20075;-66
2022/03/23 02:49:05;;;;;;;16.98;12.40;;;30.90;99.90;;;;;;5054696;28;20531;-66
2022/03/23 02:51:32;;;;;;;28.90;14.80;;;30.80;99.90;;;;;;5054166;28;20032;-66
2022/03/23 03:02:25;;;;;;;25.05;16.35;;;31.10;99.90;;;;;;5054196;28;20422;-63
2022/03/23 03:04:53;;;;;;;27.95;16.80;;;31.10;99.90;;;;;;5050292;28;20078;-62
2022/03/23 03:07:20;;;;;;;31.35;16.92;;;31.20;99.90;;;;;;5053864;28;20029;-62
2022/03/23 03:09:47;;;;;;;30.55;18.20;;;31.30;99.90;;;;;;5054403;28;20366;-62
2022/03/23 03:12:16;;;;;;;28.52;16.85;;;31.30;99.90;;;;;;5054380;28;20040;-63
2022/03/23 03:14:43;;;;;;;25.85;17.02;;;31.30;99.90;;;;;;5050505;28;20033;-61
2022/03/23 03:17:10;;;;;;;24.15;15.13;;;31.40;99.90;;;;;;5048174;28;20086;-60
2022/03/23 03:19:37;;;;;;;26.33;14.65;;;31.40;99.80;;;;;;5054661;28;20032;-62
2022/03/23 03:22:05;;;;;;;32.83;15.10;;;31.50;98.00;;;;;;5068290;28;20033;-60
2022/03/23 03:24:31;;;;;;;23.27;16.75;;;31.60;96.50;;;;;;5072419;28;20075;-62
2022/03/23 03:26:58;;;;;;;25.13;14.15;;;31.60;97.00;;;;;;5064706;28;20036;-61
2022/03/23 03:29:26;;;;;;;26.38;17.05;;;31.60;97.50;;;;;;5073780;28;20108;-62
2022/03/23 03:31:52;;;;;;;29.00;15.20;;;31.70;97.90;;;;;;5074113;28;20362;-60
2022/03/23 03:34:19;;;;;;;19.77;14.10;;;31.90;97.00;;;;;;5056980;28;20036;-61
2022/03/23 03:36:46;;;;;;;23.15;13.77;;;32.00;96.60;;;;;;5055050;28;20021;-60
2022/03/23 03:39:12;;;;;;;21.08;13.80;;;32.00;95.90;;;;;;5053887;28;20035;-60
2022/03/23 03:41:40;;;;;;;22.50;14.38;;;32.10;95.60;;;;;;5053696;28;20029;-61
2022/03/23 03:44:07;;;;;;;25.08;15.13;;;32.20;95.30;;;;;;5053239;28;20071;-61
2022/03/23 03:46:34;;;;;;;20.00;14.18;;;32.20;94.30;;;;;;5055624;28;20029;-60
2022/03/23 03:49:01;;;;;;;28.10;15.75;;;32.30;94.80;;;;;;5066002;28;20127;-61
2022/03/23 03:51:27;;;;;;;25.08;15.43;;;32.30;93.70;;;;;;5073718;28;20082;-60
2022/03/23 03:53:54;;;;;;;22.75;14.07;;;32.30;93.40;;;;;;5068427;28;20064;-60
2022/03/23 03:56:21;;;;;;;18.42;14.32;;;32.30;94.30;;;;;;5053216;28;20040;-60
2022/03/23 03:58:48;;;;;;;19.88;13.95;;;32.40;93.70;;;;;;5054807;28;20028;-60
2022/03/23 04:01:15;;;;;;;24.35;15.60;;;32.50;93.50;;;;;;5054557;28;20025;-61
2022/03/23 04:03:42;;;;;;;28.48;15.85;;;32.50;93.60;;;;;;5053284;28;20139;-61
2022/03/23 04:06:09;;;;;;;23.13;15.77;;;32.60;94.10;;;;;;5063992;28;20020;-60
2022/03/23 04:08:36;;;;;;;24.85;16.73;;;32.70;93.80;;;;;;5064873;28;20074;-58
2022/03/23 04:11:02;;;;;;;23.90;17.58;;;32.70;93.40;;;;;;5061952;28;20504;-62
2022/03/23 04:13:29;;;;;;;21.80;16.38;;;32.70;93.80;;;;;;5061319;28;20393;-60
2022/03/23 04:15:56;;;;;;;31.70;24.02;;;32.70;93.50;;;;;;5057800;28;20032;-61
2022/03/23 04:18:23;;;;;;;30.05;16.88;;;32.70;92.40;;;;;;5064264;28;20071;-61
2022/03/23 04:20:49;;;;;;;25.63;17.58;;;32.70;92.20;;;;;;5053349;28;20465;-62
2022/03/23 04:23:16;;;;;;;35.97;17.85;;;32.80;92.10;;;;;;5053147;28;20056;-60
2022/03/23 04:25:42;;;;;;;26.55;18.58;;;32.80;91.00;;;;;;5057217;28;20108;-60
2022/03/23 04:28:09;;;;;;;27.98;17.52;;;32.90;91.20;;;;;;5063720;28;20029;-62
2022/03/23 04:30:37;;;;;;;32.70;19.83;;;32.80;91.00;;;;;;5057912;28;20021;-62
2022/03/23 04:33:05;;;;;;;33.20;20.80;;;32.80;92.00;;;;;;5060537;28;20528;-62
2022/03/23 04:35:31;;;;;;;24.15;16.05;;;32.90;91.70;;;;;;5058077;28;20024;-62
2022/03/23 04:37:59;;;;;;;28.88;16.88;;;32.90;90.40;;;;;;5053571;28;20017;-62
2022/03/23 04:40:26;;;;;;;33.78;19.23;;;33.00;91.90;;;;;;5053059;28;20103;-62
2022/03/23 04:42:52;;;;;;;30.17;17.63;;;33.10;90.90;;;;;;5053301;28;20017;-63
2022/03/23 04:45:19;;;;;;;25.73;15.18;;;33.20;91.40;;;;;;5056905;28;20029;-62
2022/03/23 04:47:46;;;;;;;29.13;17.35;;;33.20;91.40;;;;;;5053064;28;20381;-64
2022/03/23 04:50:13;;;;;;;27.25;16.15;;;33.30;90.70;;;;;;5053202;28;20363;-64
2022/03/23 04:52:42;;;;;;;30.10;21.92;;;33.40;91.20;;;;;;5052512;28;20426;-63
2022/03/23 04:55:10;;;;;;;33.90;21.45;;;33.40;91.20;;;;;;5043562;28;20389;-62
2022/03/23 04:57:37;;;;;;;31.85;18.65;;;33.50;92.10;;;;;;5059259;28;20017;-63
2022/03/23 05:00:10;;;;;;;30.50;15.95;;;33.60;91.70;;;;;;5058196;28;20028;-63
2022/03/23 05:02:39;;;;;;;26.05;16.48;;;33.70;90.30;;;;;;5056967;28;20025;-62
2022/03/23 05:05:08;;;;;;;34.35;17.48;;;33.70;90.60;;;;;;5056857;28;20488;-63
2022/03/23 05:07:35;;;;;;;23.10;17.55;;;33.80;90.40;;;;;;5056880;28;20469;-64
2022/03/23 05:10:02;;;;;;;26.40;16.80;;;33.80;90.20;;;;;;5065187;28;20033;-64
2022/03/23 05:12:29;;;;;;;20.73;16.67;;;33.70;90.70;;;;;;5058013;28;20162;-62
2022/03/23 05:14:55;;;;;;;29.50;17.30;;;33.80;90.30;;;;;;5052978;28;20378;-64
2022/03/23 05:17:22;;;;;;;25.67;16.67;;;33.90;88.60;;;;;;5057736;28;20063;-65
2022/03/23 05:19:49;;;;;;;26.65;16.35;;;34.00;88.70;;;;;;5064670;28;20104;-64
2022/03/23 05:22:15;;;;;;;28.83;15.00;;;33.80;87.70;;;;;;5064276;28;20488;-65
2022/03/23 05:24:42;;;;;;;20.00;15.25;;;33.70;88.70;;;;;;5058073;28;20595;-63
2022/03/23 05:27:09;;;;;;;31.83;21.50;;;33.60;88.00;;;;;;5052952;28;20029;-63
2022/03/23 05:29:37;;;;;;;31.27;20.75;;;33.50;89.90;;;;;;5055582;28;20040;-62
2022/03/23 05:32:04;;;;;;;20.98;16.52;;;33.60;90.60;;;;;;5054051;28;20029;-64
2022/03/23 05:34:31;;;;;;;25.88;15.02;;;33.60;89.40;;;;;;5054243;28;20025;-63
2022/03/23 05:36:57;;;;;;;19.33;13.98;;;33.80;89.10;;;;;;5053465;28;20029;-64
2022/03/23 05:39:24;;;;;;;23.63;15.68;;;33.90;87.10;;;;;;5054056;28;20111;-67
2022/03/23 05:41:51;;;;;;;29.83;17.27;;;33.90;88.40;;;;;;5055018;28;20482;-65
2022/03/23 05:44:17;;;;;;;22.30;15.95;;;34.00;86.80;;;;;;5053428;28;20041;-65
2022/03/23 05:46:44;;;;;;;24.02;14.95;;;33.90;85.90;;;;;;5050263;28;20025;-65
2022/03/23 05:49:11;;;;;;;24.58;16.08;;;33.80;86.00;;;;;;5056024;28;20052;-64
2022/03/23 05:51:37;;;;;;;28.45;13.93;;;33.90;87.70;;;;;;5052338;28;20067;-63
2022/03/23 05:54:04;;;;;;;19.58;13.50;;;34.00;85.00;;;;;;5056319;28;20047;-64
2022/03/23 05:56:31;;;;;;;24.50;13.30;;;33.90;81.00;;;;;;5056208;28;20095;-64
2022/03/23 05:58:58;;;;;;;23.40;13.32;;;34.00;80.50;;;;;;5054863;28;20039;-62
2022/03/23 06:01:24;;;;;;;30.67;19.20;;;34.00;81.10;;;;;;5055139;28;20448;-60
2022/03/23 06:03:51;;;;;;;20.13;13.80;;;34.00;79.00;;;;;;5055085;28;20025;-62
2022/03/23 06:06:18;;;;;;;21.92;12.10;;;34.00;79.20;;;;;;5056760;28;20029;-63
2022/03/23 06:08:45;;;;;;;18.15;13.65;;;33.90;81.90;;;;;;5052482;28;20045;-60
2022/03/23 06:11:12;;;;;;;19.30;13.90;;;33.90;80.10;;;;;;5055403;28;20017;-65
2022/03/23 06:13:38;;;;;;;20.10;12.18;;;34.00;80.60;;;;;;5060293;28;20103;-61
2022/03/23 06:16:06;;;;;;;14.50;11.25;;;34.00;80.50;;;;;;5064652;28;20027;-62
2022/03/23 06:18:33;;;;;;;19.00;10.77;;;34.00;82.50;;;;;;5063918;28;20024;-62
2022/03/23 06:21:00;;;;;;;22.33;11.35;;;33.90;80.00;;;;;;5065305;28;20013;-61
2022/03/23 06:23:27;;;;;;;20.92;13.52;;;34.10;81.60;;;;;;5065965;28;20060;-60
2022/03/23 06:25:54;;;;;;;17.42;12.15;;;34.10;79.80;;;;;;5056956;28;20025;-60
2022/03/23 06:28:21;;;;;;;20.58;12.80;;;34.30;78.20;;;;;;5061213;28;20029;-62
2022/03/23 06:30:48;;;;;;;23.50;12.85;;;34.20;78.10;;;;;;5063105;28;20094;-61
2022/03/23 06:33:15;;;;;;;19.75;11.95;;;34.10;77.60;;;;;;5053075;28;20029;-60
2022/03/23 06:35:42;;;;;;;16.02;12.13;;;34.10;79.50;;;;;;5054724;28;20024;-62
2022/03/23 06:38:09;;;;;;;19.55;13.13;;;34.10;80.00;;;;;;5054399;28;20029;-60
2022/03/23 06:40:36;;;;;;;15.95;11.48;;;34.20;79.50;;;;;;5054159;28;20065;-55
2022/03/23 06:43:03;;;;;;;22.90;12.80;;;34.40;78.90;;;;;;5062802;28;20188;-56
2022/03/23 06:45:30;;;;;;;17.40;11.45;;;34.30;79.10;;;;;;5059198;28;20106;-58
2022/03/23 06:47:57;;;;;;;14.65;10.60;;;34.30;78.00;;;;;;5051297;28;20021;-60
2022/03/23 06:50:25;;;;;;;18.17;11.95;;;34.30;79.40;;;;;;5051623;28;20029;-61
2022/03/23 06:52:51;;;;;;;24.88;12.70;;;34.20;79.20;;;;;;5055174;28;20527;-64
2022/03/23 06:55:18;;;;;;;17.77;12.60;;;34.40;81.10;;;;;;5052100;28;20029;-59
2022/03/23 06:57:45;;;;;;;22.08;11.77;;;34.60;81.20;;;;;;5057050;28;20151;-62
2022/03/23 07:00:13;;;;;;;23.98;13.38;;;34.80;76.80;;;;;;5056213;28;20036;-59
2022/03/23 07:02:43;;;;;;;17.63;11.95;;;34.80;78.10;;;;;;5057652;28;20536;-61
2022/03/23 07:05:11;;;;;;;15.95;12.18;;;34.70;77.10;;;;;;5060570;28;20022;-61
2022/03/23 07:07:38;;;;;;;21.20;12.35;;;34.60;77.90;;;;;;5058392;28;20021;-61
2022/03/23 07:10:06;;;;;;;17.20;11.68;;;34.50;77.20;;;;;;5054292;28;20053;-59
2022/03/23 07:12:33;;;;;;;13.95;10.63;;;34.60;77.70;;;;;;5055565;28;20036;-56
2022/03/23 07:14:59;;;;;;;18.17;11.30;;;34.80;76.10;;;;;;5051474;28;20025;-62
2022/03/23 07:17:26;;;;;;;20.38;12.27;;;34.90;72.50;;;;;;5054296;28;20033;-61
2022/03/23 07:19:53;;;;;;;25.77;12.32;;;35.00;73.90;;;;;;5051060;28;20096;-65
2022/03/23 07:22:20;;;;;;;16.75;12.45;;;35.00;75.50;;;;;;5053511;28;20051;-62
2022/03/23 07:24:47;;;;;;;16.65;12.55;;;35.10;75.50;;;;;;5052832;28;20071;-64
2022/03/23 07:27:13;;;;;;;23.42;12.63;;;35.20;74.60;;;;;;5053794;28;20117;-63
2022/03/23 07:29:40;;;;;;;20.05;12.38;;;35.10;75.20;;;;;;5053911;28;20116;-64
2022/03/23 07:32:09;;;;;;;14.60;11.15;;;35.20;76.10;;;;;;5054145;28;20028;-64
2022/03/23 07:34:35;;;;;;;20.80;13.38;;;35.20;73.70;;;;;;5054734;28;20498;-64
2022/03/23 07:37:02;;;;;;;18.27;12.02;;;35.10;73.80;;;;;;5053836;28;20032;-66
2022/03/23 07:39:29;;;;;;;24.15;11.95;;;35.20;75.50;;;;;;5053286;28;20118;-66
2022/03/23 07:41:56;;;;;;;13.23;10.45;;;35.20;74.10;;;;;;5055125;28;20020;-65
2022/03/23 07:44:23;;;;;;;16.70;10.02;;;35.30;72.00;;;;;;5054792;28;20442;-65
2022/03/23 07:46:50;;;;;;;14.27;10.25;;;35.30;71.80;;;;;;5052971;28;20123;-68
2022/03/23 07:49:16;;;;;;;13.55;9.75;;;35.40;71.30;;;;;;5053242;28;20024;-70
2022/03/23 07:51:43;;;;;;;25.63;11.05;;;35.30;70.60;;;;;;5054215;28;20022;-64
2022/03/23 07:54:10;;;;;;;19.35;10.88;;;35.30;71.70;;;;;;5054822;28;20021;-69
2022/03/23 07:56:37;;;;;;;17.55;10.68;;;35.20;71.60;;;;;;5053762;28;20020;-66
2022/03/23 07:59:04;;;;;;;15.88;11.20;;;35.30;72.40;;;;;;5052591;28;20056;-64
2022/03/23 08:01:31;;;;;;;22.55;13.13;;;35.20;72.80;;;;;;5054232;28;20025;-65
2022/03/23 08:03:57;;;;;;;18.85;12.63;;;35.20;71.50;;;;;;5054112;28;20057;-65
2022/03/23 08:06:26;;;;;;;19.77;13.57;;;35.10;71.80;;;;;;5053230;28;20104;-70
2022/03/23 08:08:53;;;;;;;18.20;12.85;;;35.10;73.10;;;;;;5051629;28;20101;-64
2022/03/23 08:11:20;;;;;;;37.15;25.00;;;35.00;70.00;;;;;;5052971;28;20025;-66
2022/03/23 08:13:46;;;;;;;29.80;19.00;;;35.00;71.60;;;;;;5052735;28;20083;-64
2022/03/23 08:16:13;;;;;;;37.88;26.73;;;34.90;71.30;;;;;;5053607;28;20278;-64
2022/03/23 08:18:40;;;;;;;54.03;32.72;;;34.90;72.50;;;;;;5053362;28;20064;-65
2022/03/23 08:21:07;;;;;;;28.42;16.98;;;35.00;72.80;;;;;;5053660;28;20021;-64
2022/03/23 08:23:33;;;;;;;21.98;12.70;;;35.10;72.70;;;;;;5045649;28;20044;-68
2022/03/23 08:26:02;;;;;;;32.55;19.27;;;35.10;70.60;;;;;;5044433;28;20039;-64
2022/03/23 08:28:29;;;;;;;35.10;18.60;;;35.20;70.20;;;;;;5039013;28;20029;-67
2022/03/23 08:30:55;;;;;;;19.73;11.98;;;35.20;70.00;;;;;;5040247;28;20517;-66
2022/03/23 08:33:25;;;;;;;15.25;11.18;;;35.20;68.60;;;;;;5054754;28;20051;-65
2022/03/23 08:35:51;;;;;;;20.70;14.18;;;35.20;67.80;;;;;;5053317;28;20625;-66
2022/03/23 08:38:18;;;;;;;26.85;17.50;;;35.20;68.50;;;;;;5052592;28;20047;-65
2022/03/23 08:40:45;;;;;;;28.50;17.83;;;35.30;69.80;;;;;;5054459;28;20020;-65
2022/03/23 08:43:12;;;;;;;34.53;20.83;;;35.20;69.90;;;;;;5057031;28;20040;-65
2022/03/23 08:45:38;;;;;;;33.70;20.42;;;35.30;68.70;;;;;;5053054;28;20104;-66
2022/03/23 08:48:05;;;;;;;133.07;106.35;;;35.30;69.60;;;;;;5052570;28;20025;-67
2022/03/23 08:50:34;;;;;;;40.67;19.42;;;35.30;69.90;;;;;;5050704;28;20078;-66
2022/03/23 08:53:02;;;;;;;25.50;14.55;;;35.40;68.60;;;;;;5053416;28;20390;-65
2022/03/23 08:55:30;;;;;;;26.38;14.00;;;35.40;67.70;;;;;;5050649;28;20033;-71
2022/03/23 08:57:57;;;;;;;27.83;15.30;;;35.40;68.90;;;;;;5050262;28;20017;-65
2022/03/23 09:00:23;;;;;;;24.60;14.30;;;35.40;66.40;;;;;;5052594;28;20115;-68
2022/03/23 09:02:51;;;;;;;22.67;13.20;;;35.40;65.00;;;;;;5050332;28;20403;-67
2022/03/23 09:05:19;;;;;;;18.27;11.05;;;35.30;64.60;;;;;;5053920;28;20035;-65
2022/03/23 09:07:46;;;;;;;17.70;12.77;;;35.30;63.70;;;;;;5044950;28;20422;-65
2022/03/23 09:10:14;;;;;;;19.80;11.65;;;35.30;65.00;;;;;;5055534;28;20028;-67
2022/03/23 09:12:42;;;;;;;16.88;11.38;;;35.40;64.10;;;;;;5052497;28;20029;-67
2022/03/23 09:15:12;;;;;;;18.02;11.13;;;35.40;63.70;;;;;;5055595;28;20032;-68
2022/03/23 09:17:40;;;;;;;16.98;12.05;;;35.40;62.30;;;;;;5050224;28;20029;-66
2022/03/23 09:20:09;;;;;;;23.60;12.60;;;35.40;63.40;;;;;;5052805;28;20565;-68
2022/03/23 09:22:36;;;;;;;19.85;15.18;;;35.30;66.70;;;;;;5051363;28;20025;-69
2022/03/23 09:25:06;;;;;;;20.00;12.98;;;35.30;67.40;;;;;;5053329;28;20025;-61
2022/03/23 09:27:34;;;;;;;30.92;25.58;;;35.30;65.90;;;;;;5052602;28;20021;-62
2022/03/23 09:30:03;;;;;;;20.45;12.90;;;35.30;68.20;;;;;;5055176;28;20032;-61
2022/03/23 09:32:29;;;;;;;19.17;12.88;;;35.20;65.40;;;;;;5052439;28;20025;-63
2022/03/23 09:34:56;;;;;;;23.13;13.50;;;35.30;65.70;;;;;;5052944;28;20025;-64
2022/03/23 09:40:10;;;;;;;18.88;13.15;;;35.20;65.70;;;;;;5098113;23;20055;-61
2022/03/23 09:42:40;;;;;;;17.52;13.18;;;35.20;65.10;;;;;;5091153;28;20024;-67
2022/03/23 09:45:07;;;;;;;22.08;13.00;;;35.20;67.40;;;;;;5092609;28;20035;-63
2022/03/23 09:47:34;;;;;;;20.60;12.10;;;35.20;65.70;;;;;;5094522;28;20019;-65
2022/03/23 09:50:00;;;;;;;19.83;12.63;;;35.30;66.20;;;;;;5088905;28;20103;-63
2022/03/23 09:52:27;;;;;;;62.00;42.38;;;35.20;65.30;;;;;;5092873;28;20480;-62
2022/03/23 09:54:53;;;;;;;78.68;53.08;;;35.20;66.80;;;;;;5093154;28;20422;-63
2022/03/23 09:57:20;;;;;;;41.85;28.77;;;35.20;67.30;;;;;;5093362;28;20315;-65
2022/03/23 09:59:46;;;;;;;63.58;37.95;;;35.20;67.30;;;;;;5092401;28;20031;-61
2022/03/23 10:02:34;;;;;;;73.22;44.15;;;35.20;66.50;;;;;;5077267;28;20051;-60
2022/03/23 10:05:22;;;;;;;106.55;56.15;;;35.00;67.70;;;;;;5080900;28;20028;-61
2022/03/23 10:07:53;;;;;;;63.38;30.00;;;35.10;68.70;;;;;;5090643;28;20115;-60
2022/03/23 10:10:51;;;;;;;57.35;33.95;;;35.00;68.50;;;;;;5091539;28;20036;-60
2022/03/23 10:13:48;;;;;;;54.78;26.92;;;35.00;68.80;;;;;;5079743;28;20024;-61
2022/03/23 10:16:45;;;;;;;60.63;28.13;;;35.00;68.90;;;;;;5080539;28;20034;-60
2022/03/23 10:19:13;;;;;;;54.88;27.45;;;34.90;69.00;;;;;;5090023;28;20520;-65
2022/03/23 10:21:40;;;;;;;49.53;27.13;;;34.90;68.70;;;;;;5075722;28;20034;-60
2022/03/23 10:24:06;;;;;;;56.00;31.30;;;34.80;67.50;;;;;;5085430;28;20035;-62
2022/03/23 10:26:37;;;;;;;47.97;27.25;;;34.80;67.10;;;;;;5094636;28;20488;-62
2022/03/23 10:29:11;;;;;;;40.95;25.17;;;34.70;67.50;;;;;;5095797;28;20036;-60
2022/03/23 10:31:38;;;;;;;36.65;20.73;;;34.70;67.60;;;;;;5091586;28;20376;-59
2022/03/23 10:34:08;;;;;;;37.28;19.15;;;34.70;68.20;;;;;;5092914;28;20016;-61
2022/03/23 10:36:54;;;;;;;30.52;18.38;;;34.70;68.20;;;;;;5084553;28;20024;-61
2022/03/23 10:39:29;;;;;;;47.03;23.30;;;34.70;68.50;;;;;;5088182;28;20512;-61
2022/03/23 10:42:09;;;;;;;36.85;21.92;;;34.60;69.40;;;;;;5083083;28;20027;-62
2022/03/23 10:44:36;;;;;;;31.48;18.38;;;34.60;69.20;;;;;;5090973;28;20069;-63
2022/03/23 10:47:03;;;;;;;29.13;15.80;;;34.50;69.20;;;;;;5088195;28;20031;-61
2022/03/23 10:49:32;;;;;;;31.48;17.27;;;34.50;69.10;;;;;;5086454;28;20024;-61
2022/03/23 10:52:13;;;;;;;29.75;16.00;;;34.50;68.40;;;;;;5084934;28;20149;-61
2022/03/23 10:54:41;;;;;;;29.80;18.45;;;34.40;69.50;;;;;;5087788;28;20032;-60
2022/03/23 10:57:08;;;;;;;45.17;25.10;;;34.40;69.40;;;;;;5086865;28;20024;-63
2022/03/23 10:59:44;;;;;;;51.75;27.85;;;34.40;69.70;;;;;;5083529;28;20078;-60
2022/03/23 11:02:11;;;;;;;69.22;31.58;;;34.40;69.10;;;;;;5088971;28;20036;-61
2022/03/23 11:04:43;;;;;;;60.50;33.67;;;34.30;69.00;;;;;;5093352;28;20027;-60
2022/03/23 11:07:25;;;;;;;53.53;27.27;;;34.30;68.70;;;;;;5095105;28;20023;-61
2022/03/23 11:18:17;;;;;;;69.82;38.75;;;34.10;70.80;;;;;;5081901;28;20510;-61
2022/03/23 11:20:45;;;;;;;74.47;39.00;;;34.00;71.20;;;;;;5084121;28;20099;-61
2022/03/23 11:23:31;;;;;;;76.63;40.50;;;34.00;72.40;;;;;;5083440;28;20059;-61
2022/03/23 11:26:01;;;;;;;90.63;46.75;;;33.90;73.60;;;;;;5087101;28;20024;-61
2022/03/23 11:28:31;;;;;;;89.80;42.88;;;33.70;75.30;;;;;;5082679;28;20028;-61
2022/03/23 11:30:58;;;;;;;151.40;72.63;;;33.80;75.20;;;;;;5088193;28;20522;-61
2022/03/23 11:33:26;;;;;;;83.63;48.17;;;33.60;74.30;;;;;;5085531;28;20495;-61
2022/03/23 11:35:54;;;;;;;50.50;27.85;;;33.40;78.50;;;;;;5079962;28;20032;-61
2022/03/23 11:38:24;;;;;;;41.42;23.00;;;33.30;81.70;;;;;;5090770;28;20032;-61
2022/03/23 11:40:52;;;;;;;51.42;26.83;;;33.10;83.60;;;;;;5087371;28;20047;-61
2022/03/23 11:43:22;;;;;;;50.80;26.55;;;33.00;84.80;;;;;;5075938;28;20027;-61
2022/03/23 11:45:50;;;;;;;41.72;24.25;;;32.80;85.70;;;;;;5077213;28;20068;-61
2022/03/23 11:48:31;;;;;;;40.03;20.05;;;32.70;86.50;;;;;;5088727;28;20024;-62
2022/03/23 11:51:02;;;;;;;36.65;19.33;;;32.60;87.00;;;;;;5084251;28;20079;-61
2022/03/23 11:53:39;;;;;;;37.95;20.48;;;32.60;88.00;;;;;;5087256;28;20020;-61
2022/03/23 11:56:07;;;;;;;93.10;59.08;;;32.50;88.40;;;;;;5089760;28;20035;-60
2022/03/23 11:58:37;;;;;;;53.88;35.13;;;32.50;88.80;;;;;;5089446;28;20505;-61
2022/03/23 12:01:14;;;;;;;66.50;50.28;;;32.40;88.80;;;;;;5083466;28;20028;-61
2022/03/23 12:03:42;;;;;;;56.20;39.05;;;32.40;89.70;;;;;;5081919;28;20348;-60
2022/03/23 12:06:11;;;;;;;146.85;113.63;;;32.40;89.90;;;;;;5084607;28;20032;-61
2022/03/23 12:08:50;;;;;;;173.60;132.23;;;32.20;90.40;;;;;;5082678;28;20062;-60
2022/03/23 12:11:38;;;;;;;55.75;30.73;;;32.10;90.60;;;;;;5084193;28;20134;-61
2022/03/23 12:14:08;;;;;;;34.60;19.38;;;32.20;91.00;;;;;;5084677;28;20047;-60
2022/03/23 12:17:01;;;;;;;37.08;18.40;;;32.10;91.00;;;;;;5080925;28;20473;-61
2022/03/23 12:19:31;;;;;;;28.02;16.42;;;32.00;91.40;;;;;;5082371;28;20056;-63
2022/03/23 12:22:18;;;;;;;40.50;21.77;;;32.00;91.80;;;;;;5081225;28;20033;-60
2022/03/23 12:25:03;;;;;;;32.38;19.85;;;32.00;91.90;;;;;;5088194;28;20035;-61
2022/03/23 12:27:37;;;;;;;32.58;19.25;;;31.90;92.00;;;;;;5081194;28;20465;-61
2022/03/23 12:30:19;;;;;;;32.42;16.60;;;31.80;92.20;;;;;;5086646;28;20032;-61
2022/03/23 12:32:45;;;;;;;33.92;18.25;;;31.70;92.00;;;;;;5086354;28;20036;-61
2022/03/23 12:35:12;;;;;;;38.20;19.65;;;31.60;92.20;;;;;;5081415;28;20051;-61
2022/03/23 12:37:42;;;;;;;36.95;17.85;;;31.50;92.20;;;;;;5075682;28;20028;-61
2022/03/23 12:40:13;;;;;;;64.22;27.35;;;31.40;92.30;;;;;;5084284;28;20040;-61
2022/03/23 12:42:43;;;;;;;122.63;45.33;;;31.30;93.00;;;;;;5085939;28;20537;-60
2022/03/23 12:45:23;;;;;;;136.07;51.15;;;31.40;93.00;;;;;;5083990;28;20234;-61
2022/03/23 12:47:59;;;;;;;58.85;27.45;;;31.30;93.50;;;;;;5084073;28;20436;-61
2022/03/23 12:58:46;;;;;;;93.07;35.28;;;31.40;94.10;;;;;;5084727;28;20516;-61